createdAt,value
2019-05-03T00:02:28.863Z,100696.45
2019-05-03T00:05:02.283Z,100699.72
2019-05-03T00:07:27.757Z,100691.54
2019-05-03T00:09:53.255Z,100692.81
2019-05-03T00:12:18.787Z,100690.06
2019-05-03T00:14:46.564Z,100684.54
2019-05-03T00:17:12.200Z,100689.75
2019-05-03T00:19:37.991Z,100693.45
2019-05-03T00:22:03.491Z,100694.43
2019-05-03T00:24:29.049Z,100692.08
2019-05-03T00:26:54.548Z,100693.45
2019-05-03T00:29:21.879Z,100692.95
2019-05-03T00:31:47.254Z,100698.27
2019-05-03T00:34:17.413Z,100703.02
2019-05-03T00:36:55.557Z,100695.52
2019-05-03T00:39:41.751Z,100693.45
2019-05-03T00:42:07.322Z,100697.09
2019-05-03T00:44:33.145Z,100698.68
2019-05-03T00:46:58.676Z,100702.20
2019-05-03T00:49:24.159Z,100695.78
2019-05-03T00:51:51.576Z,100693.56
2019-05-03T00:54:17.067Z,100697.78
2019-05-03T00:56:44.480Z,100691.67
2019-05-03T00:59:09.782Z,100696.32
2019-05-03T01:01:35.266Z,100689.66
2019-05-03T01:04:01.823Z,100692.79
2019-05-03T01:06:27.546Z,100700.16
2019-05-03T01:08:53.100Z,100700.80
2019-05-03T01:11:18.759Z,100692.15
2019-05-03T01:13:44.242Z,100695.69
2019-05-03T01:16:13.792Z,100696.36
2019-05-03T01:18:39.346Z,100692.34
2019-05-03T01:21:04.856Z,100695.14
2019-05-03T01:23:32.459Z,100701.37
2019-05-03T01:25:57.565Z,100704.39
2019-05-03T01:28:23.066Z,100704.03
2019-05-03T01:30:48.542Z,100705.84
2019-05-03T01:33:14.023Z,100708.73
2019-05-03T01:35:39.488Z,100695.95
2019-05-03T01:38:05.213Z,100698.61
2019-05-03T01:40:32.597Z,100697.27
2019-05-03T01:42:58.242Z,100704.84
2019-05-03T01:45:23.726Z,100704.48
2019-05-03T01:48:12.527Z,100703.96
2019-05-03T01:50:47.996Z,100706.44
2019-05-03T01:53:15.593Z,100707.19
2019-05-03T01:55:54.221Z,100708.66
2019-05-03T01:58:21.676Z,100709.54
2019-05-03T02:00:47.584Z,100713.53
2019-05-03T02:03:21.802Z,100712.04
2019-05-03T02:05:51.936Z,100713.23
2019-05-03T02:08:17.579Z,100717.94
2019-05-03T02:10:43.717Z,100716.68
2019-05-03T02:13:09.610Z,100716.86
2019-05-03T02:15:35.101Z,100720.47
2019-05-03T02:18:02.513Z,100716.57
2019-05-03T02:20:27.721Z,100721.99
2019-05-03T02:22:53.265Z,100720.41
2019-05-03T02:25:18.991Z,100722.91
2019-05-03T02:27:44.500Z,100721.29
2019-05-03T02:30:13.701Z,100727.34
2019-05-03T02:32:37.336Z,100728.61
2019-05-03T02:35:02.972Z,100729.42
2019-05-03T02:37:28.480Z,100735.22
2019-05-03T02:39:57.927Z,100733.75
2019-05-03T02:42:26.306Z,100738.67
2019-05-03T02:44:50.942Z,100742.95
2019-05-03T02:47:50.403Z,100737.70
2019-05-03T02:50:18.774Z,100744.14
2019-05-03T02:52:45.758Z,100743.01
2019-05-03T02:55:16.031Z,100744.22
2019-05-03T02:57:40.408Z,100748.80
2019-05-03T03:00:08.867Z,100743.15
2019-05-03T03:02:36.534Z,100740.39
2019-05-03T03:05:02.416Z,100737.19
2019-05-03T03:07:29.633Z,100746.70
2019-05-03T03:09:56.520Z,100740.59
2019-05-03T03:12:25.753Z,100741.58
2019-05-03T03:14:55.137Z,100745.45
2019-05-03T03:17:25.250Z,100745.60
2019-05-03T03:19:55.117Z,100746.25
2019-05-03T03:22:25.866Z,100747.42
2019-05-03T03:24:55.921Z,100750.23
2019-05-03T03:27:25.913Z,100751.95
2019-05-03T03:30:00.326Z,100746.70
2019-05-03T03:32:38.426Z,100752.94
2019-05-03T03:35:20.742Z,100751.42
2019-05-03T03:37:46.370Z,100750.91
2019-05-03T03:40:15.902Z,100755.16
2019-05-03T03:42:44.987Z,100752.99
2019-05-03T03:45:10.732Z,100753.21
2019-05-03T03:47:40.039Z,100756.93
2019-05-03T03:50:07.697Z,100756.82
2019-05-03T03:52:36.086Z,100761.11
2019-05-03T03:55:06.411Z,100762.19
2019-05-03T03:57:35.719Z,100758.52
2019-05-03T04:00:01.621Z,100762.27
2019-05-03T04:02:27.651Z,100768.88
2019-05-03T04:04:56.225Z,100768.30
2019-05-03T04:07:21.165Z,100777.43
2019-05-03T04:09:46.974Z,100783.94
2019-05-03T04:12:16.243Z,100783.82
2019-05-03T04:14:50.854Z,100793.21
2019-05-03T04:17:45.662Z,100794.34
2019-05-03T04:20:11.995Z,100796.37
2019-05-03T04:22:38.488Z,100803.83
2019-05-03T04:25:05.988Z,100802.64
2019-05-03T04:27:31.938Z,100816.49
2019-05-03T04:29:58.150Z,100820.69
2019-05-03T04:32:28.148Z,100817.93
2019-05-03T04:34:50.939Z,100821.08
2019-05-03T04:37:16.604Z,100819.73
2019-05-03T04:39:42.152Z,100820.09
2019-05-03T04:42:07.628Z,100828.77
2019-05-03T04:44:35.464Z,100823.06
2019-05-03T04:47:00.503Z,100833.08
2019-05-03T04:49:26.419Z,100832.83
2019-05-03T04:51:52.149Z,100835.09
2019-05-03T04:54:36.624Z,100836.38
2019-05-03T04:57:02.103Z,100840.64
2019-05-03T04:59:27.815Z,100846.52
2019-05-03T05:01:56.039Z,100842.12
2019-05-03T05:04:20.649Z,100854.72
2019-05-03T05:06:46.417Z,100857.12
2019-05-03T05:09:11.880Z,100855.86
2019-05-03T05:11:45.914Z,100852.57
2019-05-03T05:14:11.903Z,100857.66
2019-05-03T05:16:39.716Z,100861.60
2019-05-03T05:19:08.508Z,100868.91
2019-05-03T05:21:38.441Z,100865.61
2019-05-03T05:24:05.698Z,100873.23
2019-05-03T05:26:56.907Z,100877.81
2019-05-03T05:29:25.473Z,100877.73
2019-05-03T05:31:51.048Z,100889.08
2019-05-03T05:34:17.541Z,100886.05
2019-05-03T05:36:45.091Z,100888.42
2019-05-03T05:39:10.675Z,100899.94
2019-05-03T05:41:36.126Z,100898.73
2019-05-03T05:44:01.852Z,100900.29
2019-05-03T05:46:31.977Z,100897.63
2019-05-03T05:48:57.524Z,100899.64
2019-05-03T05:51:24.722Z,100892.31
2019-05-03T05:53:50.676Z,100898.98
2019-05-03T05:56:41.242Z,100894.20
2019-05-03T05:59:25.657Z,100896.58
2019-05-03T06:02:04.941Z,100897.00
2019-05-03T06:04:30.365Z,100905.59
2019-05-03T06:07:18.726Z,100899.83
2019-05-03T06:10:08.247Z,100904.52
2019-05-03T06:12:43.136Z,100907.42
2019-05-03T06:15:15.770Z,100907.23
2019-05-03T06:17:58.377Z,100907.66
2019-05-03T06:20:37.731Z,100908.88
2019-05-03T06:23:11.182Z,100907.61
2019-05-03T06:25:42.895Z,100906.81
2019-05-03T06:28:27.208Z,100907.41
2019-05-03T06:31:14.967Z,100910.31
2019-05-03T06:33:40.406Z,100917.39
2019-05-03T06:36:06.098Z,100916.54
2019-05-03T06:38:31.558Z,100916.50
2019-05-03T06:40:57.334Z,100921.00
2019-05-03T06:43:24.430Z,100918.84
2019-05-03T06:45:50.643Z,100919.17
2019-05-03T06:48:17.738Z,100913.24
2019-05-03T06:50:45.421Z,100916.52
2019-05-03T06:53:13.002Z,100913.75
2019-05-03T06:55:39.952Z,100923.76
2019-05-03T06:58:05.441Z,100919.56
2019-05-03T07:00:56.353Z,100924.38
2019-05-03T07:03:39.379Z,100922.33
2019-05-03T07:06:37.440Z,100922.02
2019-05-03T07:09:10.032Z,100920.99
2019-05-03T07:11:35.743Z,100926.71
2019-05-03T07:14:01.384Z,100927.46
2019-05-03T07:16:26.878Z,100922.55
2019-05-03T07:18:52.233Z,100920.16
2019-05-03T07:21:17.703Z,100926.28
2019-05-03T07:23:44.970Z,100932.44
2019-05-03T07:26:10.277Z,100929.02
2019-05-03T07:28:46.720Z,100933.20
2019-05-03T07:31:04.687Z,100931.02
2019-05-03T07:33:32.007Z,100926.19
2019-05-03T07:35:57.497Z,100928.31
2019-05-03T07:38:24.843Z,100920.68
2019-05-03T07:40:50.712Z,100918.89
2019-05-03T07:43:18.808Z,100914.16
2019-05-03T07:45:44.635Z,100908.78
2019-05-03T07:48:10.262Z,100905.63
2019-05-03T07:50:35.851Z,100910.55
2019-05-03T07:53:01.458Z,100912.84
2019-05-03T07:55:45.717Z,100912.74
2019-05-03T07:58:15.062Z,100916.58
2019-05-03T08:00:40.816Z,100923.70
2019-05-03T08:03:06.274Z,100922.90
2019-05-03T08:05:31.915Z,100924.00
2019-05-03T08:07:57.858Z,100926.66
2019-05-03T08:10:25.499Z,100923.81
2019-05-03T08:12:50.406Z,100925.06
2019-05-03T08:15:16.019Z,100921.91
2019-05-03T08:17:42.166Z,100924.69
2019-05-03T08:20:08.274Z,100917.86
2019-05-03T08:22:34.598Z,100921.52
2019-05-03T08:25:01.041Z,100923.78
2019-05-03T08:27:26.684Z,100922.00
2019-05-03T08:29:52.151Z,100915.66
2019-05-03T08:32:44.435Z,100910.42
2019-05-03T08:35:31.847Z,100907.20
2019-05-03T08:37:59.018Z,100904.73
2019-05-03T08:40:26.400Z,100904.14
2019-05-03T08:42:51.892Z,100901.98
2019-05-03T08:45:17.594Z,100906.14
2019-05-03T08:47:45.048Z,100906.14
2019-05-03T08:50:10.636Z,100901.57
2019-05-03T08:52:36.088Z,100914.03
2019-05-03T08:55:01.576Z,100909.23
2019-05-03T08:57:27.321Z,100912.53
2019-05-03T08:59:54.771Z,100910.85
2019-05-03T09:02:20.453Z,100911.09
2019-05-03T09:04:46.423Z,100914.42
2019-05-03T09:07:11.875Z,100906.25
2019-05-03T09:09:43.331Z,100910.11
2019-05-03T09:12:08.783Z,100911.22
2019-05-03T09:14:42.491Z,100917.31
2019-05-03T09:17:01.440Z,100908.09
2019-05-03T09:19:27.451Z,100910.64
2019-05-03T09:21:54.758Z,100896.91
2019-05-03T09:24:20.129Z,100905.30
2019-05-03T09:26:45.565Z,100905.25
2019-05-03T09:29:11.300Z,100908.97
2019-05-03T09:31:36.753Z,100909.84
2019-05-03T09:34:02.176Z,100906.17
2019-05-03T09:36:27.646Z,100903.07
2019-05-03T09:38:54.986Z,100903.78
2019-05-03T09:41:20.202Z,100903.98
2019-05-03T09:43:45.645Z,100892.34
2019-05-03T09:46:11.102Z,100896.12
2019-05-03T09:48:36.849Z,100898.05
2019-05-03T09:51:02.549Z,100888.16
2019-05-03T09:53:30.503Z,100898.55
2019-05-03T09:55:56.003Z,100894.72
2019-05-03T09:58:21.631Z,100893.48
2019-05-03T10:00:48.485Z,100889.19
2019-05-03T10:03:13.887Z,100881.09
2019-05-03T10:05:40.139Z,100886.30
2019-05-03T10:08:05.592Z,100867.77
2019-05-03T10:10:49.962Z,100873.56
2019-05-03T10:13:23.170Z,100871.73
2019-05-03T10:15:44.976Z,100876.00
2019-05-03T10:18:12.777Z,100873.36
2019-05-03T10:20:38.173Z,100877.17
2019-05-03T10:23:14.911Z,100872.20
2019-05-03T10:25:40.544Z,100868.75
2019-05-03T10:28:06.006Z,100878.70
2019-05-03T10:30:31.449Z,100877.46
2019-05-03T10:33:19.522Z,100875.98
2019-05-03T10:35:45.189Z,100873.66
2019-05-03T10:38:10.923Z,100891.34
2019-05-03T10:40:37.173Z,100884.22
2019-05-03T10:43:04.811Z,100885.52
2019-05-03T10:45:31.378Z,100882.08
2019-05-03T10:47:56.859Z,100883.73
2019-05-03T10:50:22.388Z,100890.41
2019-05-03T10:52:55.447Z,100889.47
2019-05-03T10:55:20.681Z,100891.70
2019-05-03T10:57:49.238Z,100902.38
2019-05-03T11:00:41.587Z,100884.02
2019-05-03T11:02:54.969Z,100888.17
2019-05-03T11:05:19.913Z,100870.48
2019-05-03T11:07:45.737Z,100873.17
2019-05-03T11:10:11.972Z,100874.84
2019-05-03T11:12:37.486Z,100878.61
2019-05-03T11:15:03.041Z,100876.09
2019-05-03T11:17:28.497Z,100871.31
2019-05-03T11:19:54.790Z,100867.48
2019-05-03T11:22:20.274Z,100868.97
2019-05-03T11:24:46.043Z,100872.45
2019-05-03T11:27:19.551Z,100871.99
2019-05-03T11:29:45.177Z,100878.48
2019-05-03T11:32:20.371Z,100874.02
2019-05-03T11:35:04.862Z,100873.86
2019-05-03T11:37:45.313Z,100866.42
2019-05-03T11:40:11.098Z,100865.05
2019-05-03T11:42:50.470Z,100862.72
2019-05-03T11:45:24.922Z,100860.70
2019-05-03T11:48:02.715Z,100862.38
2019-05-03T11:51:12.010Z,100858.41
2019-05-03T11:53:37.789Z,100848.74
2019-05-03T11:56:05.417Z,100845.83
2019-05-03T11:58:30.423Z,100848.14
2019-05-03T12:01:14.986Z,100848.23
2019-05-03T12:03:37.278Z,100856.63
2019-05-03T12:06:04.838Z,100844.41
2019-05-03T12:08:29.933Z,100841.27
2019-05-03T12:11:01.026Z,100844.23
2019-05-03T12:13:30.611Z,100840.30
2019-05-03T12:15:56.378Z,100830.08
2019-05-03T12:18:24.795Z,100842.33
2019-05-03T12:20:50.639Z,100835.62
2019-05-03T12:23:17.684Z,100834.26
2019-05-03T12:25:45.949Z,100834.63
2019-05-03T12:28:10.864Z,100829.14
2019-05-03T12:30:44.912Z,100827.00
2019-05-03T12:33:10.233Z,100826.14
2019-05-03T12:35:35.985Z,100825.72
2019-05-03T12:38:02.062Z,100826.16
2019-05-03T12:40:27.588Z,100821.80
2019-05-03T12:42:54.962Z,100825.38
2019-05-03T12:45:20.434Z,100813.77
2019-05-03T12:47:45.887Z,100810.19
2019-05-03T12:50:12.657Z,100820.72
2019-05-03T12:52:49.237Z,100818.33
2019-05-03T12:55:05.709Z,100810.66
2019-05-03T12:57:31.175Z,100807.81
2019-05-03T13:00:21.379Z,100800.98
2019-05-03T13:02:55.082Z,100801.27
2019-05-03T13:05:20.636Z,100801.22
2019-05-03T13:07:50.904Z,100799.48
2019-05-03T13:10:22.694Z,100807.03
2019-05-03T13:12:52.892Z,100803.42
2019-05-03T13:15:14.468Z,100801.83
2019-05-03T13:17:39.995Z,100795.00
2019-05-03T13:20:11.217Z,100793.99
2019-05-03T13:22:37.854Z,100788.72
2019-05-03T13:25:03.474Z,100794.84
2019-05-03T13:27:28.919Z,100796.25
2019-05-03T13:29:55.621Z,100792.25
2019-05-03T13:32:21.271Z,100791.14
2019-05-03T13:34:46.678Z,100782.89
2019-05-03T13:37:12.306Z,100781.91
2019-05-03T13:39:39.139Z,100780.52
2019-05-03T13:42:05.694Z,100789.45
2019-05-03T13:44:31.270Z,100783.05
2019-05-03T13:46:56.775Z,100780.06
2019-05-03T13:49:22.240Z,100780.59
2019-05-03T13:51:48.488Z,100778.40
2019-05-03T13:54:14.989Z,100766.39
2019-05-03T13:56:40.746Z,100770.64
2019-05-03T13:59:18.565Z,100770.80
2019-05-03T14:01:33.423Z,100767.48
2019-05-03T14:03:58.934Z,100767.69
2019-05-03T14:06:24.688Z,100765.22
2019-05-03T14:08:50.422Z,100769.20
2019-05-03T14:11:16.012Z,100760.07
2019-05-03T14:13:41.499Z,100764.44
2019-05-03T14:16:07.569Z,100759.59
2019-05-03T14:18:35.167Z,100763.65
2019-05-03T14:21:12.431Z,100763.42
2019-05-03T14:23:57.065Z,100758.84
2019-05-03T14:26:24.450Z,100755.53
2019-05-03T14:28:50.060Z,100758.58
2019-05-03T14:31:15.686Z,100759.73
2019-05-03T14:33:41.100Z,100758.42
2019-05-03T14:36:06.573Z,100758.11
2019-05-03T14:38:32.026Z,100759.49
2019-05-03T14:40:57.496Z,100761.56
2019-05-03T14:43:24.897Z,100764.66
2019-05-03T14:45:50.553Z,100758.67
2019-05-03T14:48:16.306Z,100761.87
2019-05-03T14:50:41.775Z,100751.66
2019-05-03T14:53:07.293Z,100761.23
2019-05-03T14:55:51.736Z,100753.45
2019-05-03T14:58:48.509Z,100758.47
2019-05-03T15:01:22.113Z,100764.94
2019-05-03T15:03:47.944Z,100764.43
2019-05-03T15:06:15.359Z,100760.80
2019-05-03T15:08:40.464Z,100758.54
2019-05-03T15:11:06.249Z,100755.59
2019-05-03T15:13:31.977Z,100749.10
2019-05-03T15:15:57.446Z,100752.59
2019-05-03T15:18:22.942Z,100754.43
2019-05-03T15:20:48.596Z,100750.91
2019-05-03T15:23:14.651Z,100749.94
2019-05-03T15:25:40.421Z,100748.67
2019-05-03T15:28:06.032Z,100751.33
2019-05-03T15:30:31.569Z,100746.34
2019-05-03T15:33:00.674Z,100747.06
2019-05-03T15:35:25.892Z,100749.31
2019-05-03T15:37:51.471Z,100747.27
2019-05-03T15:40:17.193Z,100753.46
2019-05-03T15:42:46.541Z,100749.30
2019-05-03T15:45:31.297Z,100743.02
2019-05-03T15:48:12.678Z,100746.96
2019-05-03T15:50:38.417Z,100748.35
2019-05-03T15:53:04.375Z,100745.50
2019-05-03T15:55:30.277Z,100743.58
2019-05-03T15:57:55.823Z,100745.70
2019-05-03T16:00:21.772Z,100743.78
2019-05-03T16:02:47.070Z,100737.59
2019-05-03T16:05:12.544Z,100740.02
2019-05-03T16:07:37.979Z,100744.30
2019-05-03T16:10:04.716Z,100743.75
2019-05-03T16:12:30.312Z,100741.19
2019-05-03T16:14:55.679Z,100740.77
2019-05-03T16:17:21.436Z,100736.73
2019-05-03T16:19:47.800Z,100732.27
2019-05-03T16:22:14.418Z,100743.95
2019-05-03T16:24:39.979Z,100730.05
2019-05-03T16:27:17.329Z,100725.14
2019-05-03T16:29:44.504Z,100729.63
2019-05-03T16:32:10.551Z,100728.19
2019-05-03T16:34:35.898Z,100724.78
2019-05-03T16:37:01.428Z,100721.78
2019-05-03T16:39:27.058Z,100716.93
2019-05-03T16:41:52.553Z,100718.98
2019-05-03T16:44:18.063Z,100710.15
2019-05-03T16:46:44.920Z,100719.41
2019-05-03T16:49:10.323Z,100712.28
2019-05-03T16:51:35.869Z,100718.92
2019-05-03T16:54:01.432Z,100710.35
2019-05-03T16:56:26.892Z,100712.69
2019-05-03T16:58:52.263Z,100712.38
2019-05-03T17:01:18.857Z,100713.75
2019-05-03T17:03:48.752Z,100713.94
2019-05-03T17:06:28.243Z,100716.72
2019-05-03T17:09:11.532Z,100721.13
2019-05-03T17:11:36.975Z,100712.17
2019-05-03T17:14:02.377Z,100710.81
2019-05-03T17:16:28.786Z,100714.53
2019-05-03T17:18:55.197Z,100714.30
2019-05-03T17:21:20.788Z,100716.13
2019-05-03T17:23:46.265Z,100714.53
2019-05-03T17:26:11.783Z,100717.19
2019-05-03T17:28:37.150Z,100709.67
2019-05-03T17:31:04.410Z,100714.13
2019-05-03T17:33:29.905Z,100708.39
2019-05-03T17:35:55.438Z,100707.77
2019-05-03T17:38:20.813Z,100713.17
2019-05-03T17:41:11.025Z,100704.81
2019-05-03T17:43:40.663Z,100703.38
2019-05-03T17:46:06.892Z,100705.20
2019-05-03T17:48:32.347Z,100706.91
2019-05-03T17:50:57.808Z,100698.83
2019-05-03T17:53:55.016Z,100705.47
2019-05-03T17:56:55.315Z,100700.89
2019-05-03T17:59:28.667Z,100703.12
2019-05-03T18:01:59.581Z,100700.52
2019-05-03T18:04:42.771Z,100696.47
2019-05-03T18:07:42.538Z,100694.47
2019-05-03T18:10:09.442Z,100699.79
2019-05-03T18:12:35.110Z,100700.85
2019-05-03T18:15:00.559Z,100697.77
2019-05-03T18:17:26.001Z,100700.20
2019-05-03T18:19:51.922Z,100695.14
2019-05-03T18:22:17.543Z,100694.37
2019-05-03T18:24:43.255Z,100697.95
2019-05-03T18:27:08.719Z,100695.17
2019-05-03T18:29:34.638Z,100690.98
2019-05-03T18:32:00.249Z,100697.44
2019-05-03T18:34:25.694Z,100686.91
2019-05-03T18:36:51.279Z,100690.32
2019-05-03T18:39:16.686Z,100693.70
2019-05-03T18:41:42.227Z,100693.88
2019-05-03T18:44:20.345Z,100695.59
2019-05-03T18:46:49.760Z,100692.84
2019-05-03T18:49:29.746Z,100687.16
2019-05-03T18:51:55.541Z,100689.87
2019-05-03T18:54:21.463Z,100687.44
2019-05-03T18:56:46.859Z,100693.17
2019-05-03T18:59:14.526Z,100694.81
2019-05-03T19:01:39.761Z,100687.48
2019-05-03T19:04:34.337Z,100683.81
2019-05-03T19:07:03.784Z,100693.66
2019-05-03T19:09:59.036Z,100693.11
2019-05-03T19:12:41.468Z,100695.95
2019-05-03T19:15:07.901Z,100702.36
2019-05-03T19:17:40.971Z,100703.23
2019-05-03T19:20:10.662Z,100701.30
2019-05-03T19:22:36.632Z,100703.84
2019-05-03T19:25:02.704Z,100705.73
2019-05-03T19:27:30.663Z,100701.80
2019-05-03T19:29:56.515Z,100699.55
2019-05-03T19:32:22.493Z,100687.00
2019-05-03T19:34:51.192Z,100690.12
2019-05-03T19:37:15.615Z,100691.40
2019-05-03T19:39:43.595Z,100690.55
2019-05-03T19:42:09.206Z,100698.56
2019-05-03T19:44:36.698Z,100693.52
2019-05-03T19:47:02.054Z,100696.66
2019-05-03T19:49:27.758Z,100696.17
2019-05-03T19:51:54.538Z,100696.73
2019-05-03T19:54:20.337Z,100698.42
2019-05-03T19:56:46.923Z,100695.05
2019-05-03T19:59:14.873Z,100691.63
2019-05-03T20:01:50.302Z,100698.48
2019-05-03T20:04:41.038Z,100691.36
2019-05-03T20:07:25.539Z,100692.42
2019-05-03T20:09:51.303Z,100693.58
2019-05-03T20:12:19.915Z,100689.66
2019-05-03T20:14:45.450Z,100688.30
2019-05-03T20:17:10.823Z,100689.68
2019-05-03T20:19:36.230Z,100685.31
2019-05-03T20:22:01.672Z,100687.92
2019-05-03T20:24:27.440Z,100688.78
2019-05-03T20:26:53.001Z,100677.78
2019-05-03T20:29:18.570Z,100672.23
2019-05-03T20:31:44.734Z,100667.69
2019-05-03T20:34:10.393Z,100680.08
2019-05-03T20:36:36.143Z,100671.48
2019-05-03T20:39:01.670Z,100676.27
2019-05-03T20:41:27.584Z,100671.83
2019-05-03T20:46:51.140Z,100668.23
2019-05-03T20:49:17.066Z,100678.19
2019-05-03T20:51:44.999Z,100668.81
2019-05-03T20:54:10.500Z,100662.95
2019-05-03T20:56:35.905Z,100668.26
2019-05-03T20:59:01.269Z,100670.39
2019-05-03T21:01:26.709Z,100668.92
2019-05-03T21:03:52.073Z,100676.95
2019-05-03T21:06:17.516Z,100666.06
2019-05-03T21:08:51.476Z,100665.03
2019-05-03T21:11:10.122Z,100655.58
2019-05-03T21:13:42.116Z,100656.55
2019-05-03T21:16:19.210Z,100652.72
2019-05-03T21:19:00.626Z,100659.88
2019-05-03T21:21:51.492Z,100660.50
2019-05-03T21:24:41.970Z,100663.07
2019-05-03T21:27:07.463Z,100662.98
2019-05-03T21:29:34.609Z,100653.38
2019-05-03T21:32:00.578Z,100655.88
2019-05-03T21:34:26.001Z,100642.61
2019-05-03T21:36:51.965Z,100641.80
2019-05-03T21:39:17.393Z,100640.97
2019-05-03T21:41:44.936Z,100642.77
2019-05-03T21:44:15.390Z,100638.98
2019-05-03T21:46:46.072Z,100632.97
2019-05-03T21:49:15.041Z,100637.52
2019-05-03T21:51:40.637Z,100631.95
2019-05-03T21:54:07.008Z,100629.70
2019-05-03T21:56:32.468Z,100627.14
2019-05-03T21:58:57.920Z,100630.70
2019-05-03T22:01:25.700Z,100627.95
2019-05-03T22:03:51.327Z,100622.29
2019-05-03T22:06:17.195Z,100634.83
2019-05-03T22:08:42.859Z,100629.31
2019-05-03T22:11:08.277Z,100632.08
2019-05-03T22:13:34.929Z,100633.22
2019-05-03T22:16:10.477Z,100633.30
2019-05-03T22:18:36.458Z,100626.66
2019-05-03T22:21:07.887Z,100631.52
2019-05-03T22:23:57.646Z,100623.37
2019-05-03T22:26:41.939Z,100624.02
2019-05-03T22:29:09.382Z,100622.27
2019-05-03T22:31:35.162Z,100619.12
2019-05-03T22:34:00.478Z,100616.34
2019-05-03T22:36:25.919Z,100611.09
2019-05-03T22:38:51.239Z,100613.67
2019-05-03T22:41:16.695Z,100604.66
2019-05-03T22:43:42.502Z,100606.45
2019-05-03T22:46:07.963Z,100603.47
2019-05-03T22:48:39.190Z,100601.79
2019-05-03T22:51:04.865Z,100600.91
2019-05-03T22:53:30.327Z,100603.48
2019-05-03T22:55:55.645Z,100599.06
2019-05-03T22:58:21.073Z,100595.62
2019-05-03T23:00:46.504Z,100600.30
2019-05-03T23:03:12.017Z,100588.95
2019-05-03T23:05:37.411Z,100583.72
2019-05-03T23:08:03.098Z,100573.59
2019-05-03T23:10:30.158Z,100569.57
2019-05-03T23:12:55.895Z,100573.81
2019-05-03T23:15:21.265Z,100575.42
2019-05-03T23:17:46.727Z,100565.01
2019-05-03T23:20:21.621Z,100571.14
2019-05-03T23:22:54.732Z,100571.66
2019-05-03T23:25:20.712Z,100570.57
2019-05-03T23:27:46.104Z,100568.34
2019-05-03T23:30:12.315Z,100568.92
2019-05-03T23:32:38.405Z,100564.15
2019-05-03T23:35:04.939Z,100560.70
2019-05-03T23:37:31.146Z,100558.89
2019-05-03T23:39:56.623Z,100563.45
2019-05-03T23:42:24.423Z,100559.02
2019-05-03T23:44:49.756Z,100561.09
2019-05-03T23:47:22.793Z,100565.02
2019-05-03T23:49:48.154Z,100557.17
2019-05-03T23:52:47.837Z,100553.73
2019-05-03T23:55:41.547Z,100550.80
2019-05-03T23:58:07.087Z,100556.09
